Time;durP1;ratioP1;P1;durP2;ratioP2;P2;SDS_P1;SDS_P2;PMS_P1;PMS_P2;Temp;Humidity;BMP_temperature;BMP_pressure;BME280_temperature;BME280_humidity;BME280_pressure;Samples;Min_cycle;Max_cycle;Signal;HPM_P1;HPM_P2
2023/10/15 07:15:48;;;;;;;7.50;4.07;;;;;;;26.20;57.77;100014.53;31369820;22;3039198;-78
2023/10/15 07:30:52;;;;;;;10.13;3.78;;;;;;;27.06;57.00;99997.41;31344499;28;20399;-79
2023/10/15 07:45:55;;;;;;;6.00;3.92;;;;;;;27.85;54.48;99988.22;31348111;28;20052;-80
2023/10/15 08:00:59;;;;;;;7.07;3.57;;;;;;;28.74;53.15;99976.97;31348113;28;20106;-78
2023/10/15 08:16:15;;;;;;;6.15;3.63;;;;;;;29.70;52.22;99956.25;31357370;28;20088;-77
2023/10/15 08:31:17;;;;;;;5.03;2.33;;;;;;;29.60;50.24;99955.28;31358303;28;20110;-78
2023/10/15 08:46:22;;;;;;;3.83;1.80;;;;;;;29.38;49.57;99931.50;31382178;28;20103;-81
2023/10/15 09:01:25;;;;;;;4.40;2.28;;;;;;;30.04;48.44;99917.53;31380534;28;20056;-78
2023/10/15 09:16:28;;;;;;;;;;;;;;;30.07;44.00;99885.63;31369638;28;20453;-79
2023/10/15 09:31:33;;;;;;;5.40;2.05;;;;;;;29.82;45.11;99856.69;31351666;28;19956;-77
2023/10/15 09:46:35;;;;;;;5.25;2.00;;;;;;;30.46;45.10;99839.50;31358052;28;20052;-75
2023/10/15 10:01:44;;;;;;;3.38;1.70;;;;;;;30.16;44.40;99823.50;31351353;28;20146;-76
2023/10/15 10:16:46;;;;;;;121.68;47.20;;;;;;;30.34;44.09;99790.81;31335362;28;20590;-75
2023/10/15 10:31:49;;;;;;;3.83;2.00;;;;;;;29.81;44.17;99762.88;31335659;28;20135;-76
2023/10/15 10:46:56;;;;;;;5.07;2.85;;;;;;;30.17;44.66;99762.66;31362542;28;20045;-77
2023/10/15 11:02:00;;;;;;;4.20;1.58;;;;;;;30.25;42.85;99740.97;31322243;28;20052;-78
2023/10/15 11:17:04;;;;;;;4.50;2.47;;;;;;;31.01;41.65;99717.50;31356319;28;20063;-77
2023/10/15 11:32:08;;;;;;;4.55;2.58;;;;;;;31.57;40.28;99709.66;31352263;28;20079;-78
2023/10/15 11:47:15;;;;;;;5.10;2.00;;;;;;;32.60;40.05;99704.06;31334995;28;20053;-77
2023/10/15 12:02:19;;;;;;;9.52;5.53;;;;;;;31.97;39.56;99696.19;31375381;28;20061;-87
2023/10/15 12:17:21;;;;;;;3.67;2.08;;;;;;;28.46;42.55;99678.97;31370934;28;20132;-75
2023/10/15 12:32:25;;;;;;;4.13;1.65;;;;;;;26.61;45.91;99674.53;31374282;28;20052;-76
2023/10/15 12:47:47;;;;;;;4.53;2.30;;;;;;;25.56;46.54;99655.09;31352407;28;20040;-74
2023/10/15 13:02:51;;;;;;;5.95;2.60;;;;;;;25.57;47.99;99649.00;31348964;28;20053;-75
2023/10/15 13:17:57;;;;;;;2.88;1.98;;;;;;;24.92;49.06;99663.44;31369175;28;20057;-75
2023/10/15 13:33:01;;;;;;;2.67;1.58;;;;;;;24.56;49.87;99652.63;31368136;28;20060;-75
2023/10/15 13:48:05;;;;;;;5.28;2.38;;;;;;;24.37;50.31;99624.13;31357317;28;20049;-75
2023/10/15 14:03:07;;;;;;;7.55;2.80;;;;;;;24.17;50.94;99628.13;31365621;28;20106;-74
2023/10/15 14:18:11;;;;;;;6.43;3.72;;;;;;;23.90;50.36;99623.66;31364437;28;20049;-75
2023/10/15 14:33:13;;;;;;;8.53;5.07;;;;;;;23.95;50.43;99629.16;31362799;28;20095;-74
2023/10/15 14:48:17;;;;;;;14.98;8.07;;;;;;;23.80;50.56;99626.06;31361959;28;20088;-77
2023/10/15 15:03:22;;;;;;;12.63;5.82;;;;;;;23.64;50.82;99626.97;31362846;28;20402;-74
2023/10/15 15:18:24;;;;;;;9.13;4.95;;;;;;;23.39;52.23;99637.25;31367585;28;20081;-74
2023/10/15 15:33:27;;;;;;;10.45;5.50;;;;;;;23.15;53.89;99637.25;31373262;28;20055;-73
2023/10/15 15:48:29;;;;;;;6.32;4.18;;;;;;;22.95;54.67;99627.31;31363932;28;20053;-74
2023/10/15 16:03:32;;;;;;;12.38;5.65;;;;;;;22.90;55.35;99636.44;31361323;28;20056;-75
2023/10/15 16:18:53;;;;;;;6.18;3.95;;;;;;;22.88;55.48;99625.88;31355492;28;20095;-74
2023/10/15 16:34:02;;;;;;;4.60;3.40;;;;;;;22.70;55.80;99610.63;31332197;28;20057;-76
2023/10/15 16:49:06;;;;;;;11.35;4.97;;;;;;;22.43;56.47;99612.31;31351431;28;20057;-73
2023/10/15 17:04:09;;;;;;;7.22;5.15;;;;;;;22.21;56.92;99595.06;31358038;28;20056;-79
2023/10/15 17:19:11;;;;;;;13.75;6.30;;;;;;;22.16;57.65;99571.75;31351582;28;20144;-75
2023/10/15 17:34:13;;;;;;;17.13;8.15;;;;;;;21.84;58.26;99579.66;31357403;28;20049;-85
2023/10/15 17:49:15;;;;;;;14.63;6.88;;;;;;;21.71;59.55;99574.69;31387240;28;20060;-85
2023/10/15 18:04:18;;;;;;;8.18;4.63;;;;;;;21.55;61.97;99563.66;31371730;28;20053;-84
2023/10/15 18:19:32;;;;;;;11.18;5.25;;;;;;;21.20;66.37;99553.97;31368519;28;20473;-86
2023/10/15 18:34:35;;;;;;;11.53;6.50;;;;;;;20.61;72.12;99540.41;31358683;28;20050;-85
2023/10/15 18:49:37;;;;;;;14.73;7.63;;;;;;;20.10;78.58;99525.78;31363545;28;20294;-86
2023/10/15 19:04:39;;;;;;;17.80;8.37;;;;;;;19.69;84.22;99519.88;31364763;28;20092;-83
2023/10/15 19:19:42;;;;;;;17.77;9.00;;;;;;;19.50;86.40;99507.75;31359899;28;20056;-83
2023/10/15 19:34:44;;;;;;;18.70;9.40;;;;;;;19.13;89.85;99497.59;31370096;28;20498;-82
2023/10/15 19:49:46;;;;;;;20.20;8.90;;;;;;;19.03;89.84;99494.25;31352181;28;20045;-85
2023/10/15 20:04:48;;;;;;;15.30;7.33;;;;;;;19.02;88.83;99481.00;31381157;28;20060;-84
2023/10/15 20:19:51;;;;;;;17.43;6.20;;;;;;;19.11;88.81;99466.31;31385748;28;20056;-82
2023/10/15 20:34:53;;;;;;;12.40;6.07;;;;;;;19.16;88.08;99451.81;31374255;28;20053;-82
2023/10/15 20:49:55;;;;;;;12.60;6.37;;;;;;;18.87;90.39;99437.16;31397635;28;20064;-85
2023/10/15 21:04:57;;;;;;;12.27;5.80;;;;;;;19.21;89.34;99426.31;31396039;28;20132;-83
2023/10/15 21:53:49;;;;;;;14.33;7.40;;;;;;;17.90;100.00;99353.75;31702211;27;20390;-84
2023/10/15 22:08:51;;;;;;;11.97;7.20;;;;;;;17.77;100.00;99353.34;31557275;28;20127;-84
2023/10/15 22:23:53;;;;;;;13.20;8.43;;;;;;;17.39;100.00;99338.75;31563259;28;20489;-83
2023/10/15 22:38:55;;;;;;;13.97;8.73;;;;;;;17.30;100.00;99325.19;31565755;28;20048;-83
2023/10/15 22:54:00;;;;;;;13.90;8.90;;;;;;;17.03;100.00;99311.91;31525032;28;20420;-82
2023/10/15 23:09:02;;;;;;;16.03;9.13;;;;;;;16.60;100.00;99281.47;31474252;28;20049;-83
2023/10/15 23:24:05;;;;;;;15.70;9.10;;;;;;;16.35;100.00;99263.72;31457395;28;20427;-82
2023/10/15 23:39:15;;;;;;;18.20;9.43;;;;;;;16.31;100.00;99230.28;31467221;28;20052;-82
2023/10/15 23:54:18;;;;;;;15.13;8.10;;;;;;;16.16;100.00;99220.63;31439888;28;20048;-84
